sensor_id;sensor_type;location;lat;lon;timestamp;pressure;altitude;pressure_sealevel;temperature;humidity
60465;BME280;46314;52.392;9.758;2023-04-09T00:00:34;102005.38;;;5.95;97.64
60465;BME280;46314;52.392;9.758;2023-04-09T00:03:01;102009.38;;;6.58;95.76
60465;BME280;46314;52.392;9.758;2023-04-09T00:05:29;102007.72;;;6.21;95.29
60465;BME280;46314;52.392;9.758;2023-04-09T00:07:55;102006.41;;;6.12;95.65
60465;BME280;46314;52.392;9.758;2023-04-09T00:10:22;102007.34;;;6.18;98.13
60465;BME280;46314;52.392;9.758;2023-04-09T00:12:48;102009.84;;;6.67;94.29
60465;BME280;46314;52.392;9.758;2023-04-09T00:15:15;102010.53;;;6.86;91.97
60465;BME280;46314;52.392;9.758;2023-04-09T00:17:55;102015.53;;;5.94;96.70
60465;BME280;46314;52.392;9.758;2023-04-09T00:20:22;102015.84;;;6.16;96.98
60465;BME280;46314;52.392;9.758;2023-04-09T00:22:49;102011.56;;;5.78;97.12
60465;BME280;46314;52.392;9.758;2023-04-09T00:25:16;102006.75;;;6.39;95.48
60465;BME280;46314;52.392;9.758;2023-04-09T00:27:42;102010.69;;;6.79;93.33
60465;BME280;46314;52.392;9.758;2023-04-09T00:30:09;102013.44;;;7.19;90.97
60465;BME280;46314;52.392;9.758;2023-04-09T00:32:36;101999.44;;;6.10;95.69
60465;BME280;46314;52.392;9.758;2023-04-09T00:35:03;102001.56;;;5.96;96.90
60465;BME280;46314;52.392;9.758;2023-04-09T00:37:29;102003.34;;;6.73;94.18
60465;BME280;46314;52.392;9.758;2023-04-09T00:39:57;102001.66;;;6.83;92.55
60465;BME280;46314;52.392;9.758;2023-04-09T00:42:23;101996.81;;;6.27;95.42
60465;BME280;46314;52.392;9.758;2023-04-09T00:44:50;102000.28;;;5.98;97.61
60465;BME280;46314;52.392;9.758;2023-04-09T00:47:16;102000.97;;;6.17;96.53
60465;BME280;46314;52.392;9.758;2023-04-09T00:49:43;102004.84;;;6.16;96.48
60465;BME280;46314;52.392;9.758;2023-04-09T00:52:09;102006.31;;;5.88;97.98
60465;BME280;46314;52.392;9.758;2023-04-09T00:54:36;102000.75;;;6.31;95.49
60465;BME280;46314;52.392;9.758;2023-04-09T00:57:04;102009.03;;;6.07;96.82
60465;BME280;46314;52.392;9.758;2023-04-09T00:59:31;102004.34;;;6.67;94.53
60465;BME280;46314;52.392;9.758;2023-04-09T01:01:58;101999.50;;;5.91;98.11
60465;BME280;46314;52.392;9.758;2023-04-09T01:04:24;102001.94;;;6.35;97.47
60465;BME280;46314;52.392;9.758;2023-04-09T01:06:52;101995.25;;;6.42;94.74
60465;BME280;46314;52.392;9.758;2023-04-09T01:09:26;101993.31;;;6.31;95.43
60465;BME280;46314;52.392;9.758;2023-04-09T01:11:58;101992.38;;;6.37;95.58
60465;BME280;46314;52.392;9.758;2023-04-09T01:14:32;101989.75;;;6.31;93.97
60465;BME280;46314;52.392;9.758;2023-04-09T01:17:03;101988.88;;;6.54;93.84
60465;BME280;46314;52.392;9.758;2023-04-09T01:19:40;101991.59;;;5.83;96.74
60465;BME280;46314;52.392;9.758;2023-04-09T01:22:25;101998.59;;;6.09;96.82
60465;BME280;46314;52.392;9.758;2023-04-09T01:25:01;101992.78;;;5.87;98.75
60465;BME280;46314;52.392;9.758;2023-04-09T01:27:35;101989.25;;;6.22;95.63
60465;BME280;46314;52.392;9.758;2023-04-09T01:30:05;101989.59;;;5.48;97.69
60465;BME280;46314;52.392;9.758;2023-04-09T01:32:33;101983.72;;;5.44;99.06
60465;BME280;46314;52.392;9.758;2023-04-09T01:35:03;101978.38;;;5.31;99.53
60465;BME280;46314;52.392;9.758;2023-04-09T01:37:29;101977.44;;;5.67;99.18
60465;BME280;46314;52.392;9.758;2023-04-09T01:39:56;101968.00;;;5.87;97.27
60465;BME280;46314;52.392;9.758;2023-04-09T01:42:23;101987.00;;;5.65;98.62
60465;BME280;46314;52.392;9.758;2023-04-09T01:44:51;101973.47;;;5.63;97.57
60465;BME280;46314;52.392;9.758;2023-04-09T01:47:20;101981.47;;;6.07;95.73
60465;BME280;46314;52.392;9.758;2023-04-09T01:49:46;101982.63;;;5.87;97.20
60465;BME280;46314;52.392;9.758;2023-04-09T01:52:13;101986.47;;;5.44;98.38
60465;BME280;46314;52.392;9.758;2023-04-09T01:54:41;101974.88;;;5.96;97.08
60465;BME280;46314;52.392;9.758;2023-04-09T01:57:07;101981.28;;;5.78;98.80
60465;BME280;46314;52.392;9.758;2023-04-09T01:59:34;101985.41;;;5.57;97.82
60465;BME280;46314;52.392;9.758;2023-04-09T02:02:04;101982.09;;;5.25;99.58
60465;BME280;46314;52.392;9.758;2023-04-09T02:04:35;101981.53;;;5.88;98.46
60465;BME280;46314;52.392;9.758;2023-04-09T02:07:05;101975.38;;;5.21;99.90
60465;BME280;46314;52.392;9.758;2023-04-09T02:09:36;101975.84;;;5.18;100.00
60465;BME280;46314;52.392;9.758;2023-04-09T02:12:05;101970.88;;;5.92;99.05
60465;BME280;46314;52.392;9.758;2023-04-09T02:14:36;101970.38;;;5.83;97.05
60465;BME280;46314;52.392;9.758;2023-04-09T02:17:02;101970.13;;;5.31;100.00
60465;BME280;46314;52.392;9.758;2023-04-09T02:19:39;101964.50;;;4.96;100.00
60465;BME280;46314;52.392;9.758;2023-04-09T02:22:05;101965.81;;;5.23;100.00
60465;BME280;46314;52.392;9.758;2023-04-09T02:24:32;101967.06;;;4.79;100.00
60465;BME280;46314;52.392;9.758;2023-04-09T02:26:58;101972.81;;;5.07;100.00
60465;BME280;46314;52.392;9.758;2023-04-09T02:29:24;101967.94;;;4.91;100.00
60465;BME280;46314;52.392;9.758;2023-04-09T02:31:51;101963.38;;;4.85;100.00
60465;BME280;46314;52.392;9.758;2023-04-09T02:34:17;101966.56;;;4.45;100.00
60465;BME280;46314;52.392;9.758;2023-04-09T02:36:45;101963.28;;;4.91;100.00
60465;BME280;46314;52.392;9.758;2023-04-09T02:39:11;101965.88;;;4.86;100.00
60465;BME280;46314;52.392;9.758;2023-04-09T02:41:38;101971.50;;;5.40;100.00
60465;BME280;46314;52.392;9.758;2023-04-09T02:44:04;101971.22;;;5.84;97.54
60465;BME280;46314;52.392;9.758;2023-04-09T02:46:31;101966.34;;;5.86;96.95
60465;BME280;46314;52.392;9.758;2023-04-09T02:48:57;101970.94;;;6.16;96.16
60465;BME280;46314;52.392;9.758;2023-04-09T02:51:24;101972.72;;;6.22;94.74
60465;BME280;46314;52.392;9.758;2023-04-09T02:53:51;101970.06;;;6.51;94.29
60465;BME280;46314;52.392;9.758;2023-04-09T02:56:18;101967.72;;;6.07;94.32
60465;BME280;46314;52.392;9.758;2023-04-09T02:58:44;101966.72;;;6.01;96.05
60465;BME280;46314;52.392;9.758;2023-04-09T03:01:11;101956.56;;;6.25;95.52
60465;BME280;46314;52.392;9.758;2023-04-09T03:03:37;101965.78;;;6.07;93.67
60465;BME280;46314;52.392;9.758;2023-04-09T03:06:04;101955.66;;;4.57;99.48
60465;BME280;46314;52.392;9.758;2023-04-09T03:08:30;101955.78;;;5.29;100.00
60465;BME280;46314;52.392;9.758;2023-04-09T03:10:58;101962.38;;;5.40;97.76
60465;BME280;46314;52.392;9.758;2023-04-09T03:13:26;101953.25;;;5.69;97.41
60465;BME280;46314;52.392;9.758;2023-04-09T03:15:52;101958.31;;;5.84;95.45
60465;BME280;46314;52.392;9.758;2023-04-09T03:18:19;101958.81;;;5.09;96.69
60465;BME280;46314;52.392;9.758;2023-04-09T03:20:45;101952.66;;;5.67;97.35
60465;BME280;46314;52.392;9.758;2023-04-09T03:23:12;101950.13;;;5.66;97.08
60465;BME280;46314;52.392;9.758;2023-04-09T03:25:38;101951.66;;;5.38;97.74
60465;BME280;46314;52.392;9.758;2023-04-09T03:28:06;101948.22;;;5.55;97.56
60465;BME280;46314;52.392;9.758;2023-04-09T03:30:32;101949.16;;;5.18;100.00
60465;BME280;46314;52.392;9.758;2023-04-09T03:32:59;101942.31;;;4.79;99.97
60465;BME280;46314;52.392;9.758;2023-04-09T03:35:25;101945.38;;;5.31;100.00
60465;BME280;46314;52.392;9.758;2023-04-09T03:37:52;101942.66;;;5.97;96.34
60465;BME280;46314;52.392;9.758;2023-04-09T03:40:18;101942.03;;;5.95;95.31
60465;BME280;46314;52.392;9.758;2023-04-09T03:42:44;101944.22;;;6.28;94.46
60465;BME280;46314;52.392;9.758;2023-04-09T03:45:12;101941.97;;;5.59;96.66
60465;BME280;46314;52.392;9.758;2023-04-09T03:47:39;101950.06;;;5.84;97.59
60465;BME280;46314;52.392;9.758;2023-04-09T03:50:06;101939.28;;;4.99;100.00
60465;BME280;46314;52.392;9.758;2023-04-09T03:52:32;101943.25;;;5.03;100.00
60465;BME280;46314;52.392;9.758;2023-04-09T03:54:59;101947.81;;;4.60;100.00
60465;BME280;46314;52.392;9.758;2023-04-09T03:57:25;101948.63;;;4.79;100.00
60465;BME280;46314;52.392;9.758;2023-04-09T03:59:51;101952.38;;;4.85;100.00
60465;BME280;46314;52.392;9.758;2023-04-09T04:02:19;101951.38;;;4.24;100.00
60465;BME280;46314;52.392;9.758;2023-04-09T04:04:46;101957.75;;;4.61;100.00
60465;BME280;46314;52.392;9.758;2023-04-09T04:07:12;101953.59;;;4.70;100.00
60465;BME280;46314;52.392;9.758;2023-04-09T04:09:39;101954.16;;;3.98;100.00
60465;BME280;46314;52.392;9.758;2023-04-09T04:12:05;101952.47;;;4.41;100.00
60465;BME280;46314;52.392;9.758;2023-04-09T04:14:32;101962.13;;;4.07;100.00
60465;BME280;46314;52.392;9.758;2023-04-09T04:16:58;101955.72;;;4.13;100.00
60465;BME280;46314;52.392;9.758;2023-04-09T04:19:26;101949.41;;;3.87;100.00
60465;BME280;46314;52.392;9.758;2023-04-09T04:21:52;101960.47;;;4.43;100.00
60465;BME280;46314;52.392;9.758;2023-04-09T04:24:18;101960.66;;;4.04;100.00
60465;BME280;46314;52.392;9.758;2023-04-09T04:26:45;101957.91;;;4.04;100.00
60465;BME280;46314;52.392;9.758;2023-04-09T04:29:11;101962.50;;;3.85;100.00
60465;BME280;46314;52.392;9.758;2023-04-09T04:31:37;101968.72;;;3.74;100.00
60465;BME280;46314;52.392;9.758;2023-04-09T04:34:04;101961.13;;;4.20;100.00
60465;BME280;46314;52.392;9.758;2023-04-09T04:36:32;101961.41;;;3.93;100.00
60465;BME280;46314;52.392;9.758;2023-04-09T04:38:58;101965.97;;;4.24;100.00
60465;BME280;46314;52.392;9.758;2023-04-09T04:41:24;101962.28;;;4.12;100.00
60465;BME280;46314;52.392;9.758;2023-04-09T04:43:51;101963.16;;;3.87;100.00
60465;BME280;46314;52.392;9.758;2023-04-09T04:46:17;101969.84;;;3.66;100.00
60465;BME280;46314;52.392;9.758;2023-04-09T04:48:44;101973.22;;;3.36;100.00
60465;BME280;46314;52.392;9.758;2023-04-09T04:51:10;101968.94;;;3.47;100.00
60465;BME280;46314;52.392;9.758;2023-04-09T04:53:38;101978.25;;;3.71;100.00
60465;BME280;46314;52.392;9.758;2023-04-09T04:56:04;101981.50;;;3.87;100.00
60465;BME280;46314;52.392;9.758;2023-04-09T04:58:31;101979.66;;;3.81;100.00
60465;BME280;46314;52.392;9.758;2023-04-09T05:00:57;101986.94;;;3.93;100.00
60465;BME280;46314;52.392;9.758;2023-04-09T05:03:24;101978.63;;;4.25;100.00
60465;BME280;46314;52.392;9.758;2023-04-09T05:05:53;101974.84;;;4.01;100.00
60465;BME280;46314;52.392;9.758;2023-04-09T05:08:19;101985.44;;;3.97;100.00
60465;BME280;46314;52.392;9.758;2023-04-09T05:10:47;101988.66;;;3.63;100.00
60465;BME280;46314;52.392;9.758;2023-04-09T05:13:13;101984.59;;;3.72;100.00
60465;BME280;46314;52.392;9.758;2023-04-09T05:15:40;101992.38;;;3.75;100.00
60465;BME280;46314;52.392;9.758;2023-04-09T05:18:07;101986.09;;;3.68;100.00
60465;BME280;46314;52.392;9.758;2023-04-09T05:20:35;101986.28;;;4.42;100.00
60465;BME280;46314;52.392;9.758;2023-04-09T05:23:01;101988.56;;;4.63;100.00
60465;BME280;46314;52.392;9.758;2023-04-09T05:25:27;101981.09;;;4.70;100.00
60465;BME280;46314;52.392;9.758;2023-04-09T05:27:55;101988.09;;;5.03;99.72
60465;BME280;46314;52.392;9.758;2023-04-09T05:30:22;101987.03;;;4.67;98.81
60465;BME280;46314;52.392;9.758;2023-04-09T05:32:49;101987.00;;;4.12;100.00
60465;BME280;46314;52.392;9.758;2023-04-09T05:35:15;101994.94;;;4.20;100.00
60465;BME280;46314;52.392;9.758;2023-04-09T05:37:41;101988.22;;;4.16;100.00
60465;BME280;46314;52.392;9.758;2023-04-09T05:40:09;101994.34;;;5.10;100.00
60465;BME280;46314;52.392;9.758;2023-04-09T05:42:36;102000.00;;;4.97;100.00
60465;BME280;46314;52.392;9.758;2023-04-09T05:45:04;101994.31;;;4.80;100.00
60465;BME280;46314;52.392;9.758;2023-04-09T05:47:31;102004.06;;;4.58;100.00
60465;BME280;46314;52.392;9.758;2023-04-09T05:49:58;101990.16;;;4.71;100.00
60465;BME280;46314;52.392;9.758;2023-04-09T05:52:24;102005.59;;;4.90;100.00
60465;BME280;46314;52.392;9.758;2023-04-09T05:54:50;101999.66;;;4.75;100.00
60465;BME280;46314;52.392;9.758;2023-04-09T05:57:17;101998.75;;;5.11;99.92
60465;BME280;46314;52.392;9.758;2023-04-09T05:59:43;102002.47;;;5.36;99.81
60465;BME280;46314;52.392;9.758;2023-04-09T06:02:11;102001.34;;;5.97;96.97
60465;BME280;46314;52.392;9.758;2023-04-09T06:04:37;102002.44;;;5.66;97.35
60465;BME280;46314;52.392;9.758;2023-04-09T06:07:03;102001.09;;;5.57;98.10
60465;BME280;46314;52.392;9.758;2023-04-09T06:09:30;102005.03;;;5.61;98.56
60465;BME280;46314;52.392;9.758;2023-04-09T06:11:56;101999.31;;;5.02;100.00
60465;BME280;46314;52.392;9.758;2023-04-09T06:14:23;102001.91;;;5.45;100.00
60465;BME280;46314;52.392;9.758;2023-04-09T06:16:49;102001.63;;;5.05;100.00
60465;BME280;46314;52.392;9.758;2023-04-09T06:19:17;102000.09;;;5.93;99.32
60465;BME280;46314;52.392;9.758;2023-04-09T06:21:44;102002.06;;;5.50;99.04
60465;BME280;46314;52.392;9.758;2023-04-09T06:24:10;101998.66;;;5.48;100.00
60465;BME280;46314;52.392;9.758;2023-04-09T06:26:36;102005.09;;;5.73;99.77
60465;BME280;46314;52.392;9.758;2023-04-09T06:29:03;102004.25;;;5.11;100.00
60465;BME280;46314;52.392;9.758;2023-04-09T06:31:29;102013.13;;;5.74;99.66
60465;BME280;46314;52.392;9.758;2023-04-09T06:33:56;102016.78;;;5.68;99.42
60465;BME280;46314;52.392;9.758;2023-04-09T06:36:23;102014.53;;;5.77;100.00
60465;BME280;46314;52.392;9.758;2023-04-09T06:38:50;102024.31;;;5.30;100.00
60465;BME280;46314;52.392;9.758;2023-04-09T06:41:19;102020.50;;;5.62;100.00
60465;BME280;46314;52.392;9.758;2023-04-09T06:43:45;102022.47;;;5.85;99.50
60465;BME280;46314;52.392;9.758;2023-04-09T06:46:12;102017.94;;;5.91;99.32
60465;BME280;46314;52.392;9.758;2023-04-09T06:48:38;102018.00;;;6.02;99.15
60465;BME280;46314;52.392;9.758;2023-04-09T06:51:05;102018.44;;;5.99;99.08
60465;BME280;46314;52.392;9.758;2023-04-09T06:53:33;102011.66;;;6.37;97.59
60465;BME280;46314;52.392;9.758;2023-04-09T06:55:59;102011.31;;;6.46;97.70
60465;BME280;46314;52.392;9.758;2023-04-09T06:58:26;102015.13;;;7.09;93.69
60465;BME280;46314;52.392;9.758;2023-04-09T07:00:52;102004.38;;;6.19;97.65
60465;BME280;46314;52.392;9.758;2023-04-09T07:03:19;102018.25;;;6.48;97.27
60465;BME280;46314;52.392;9.758;2023-04-09T07:05:45;102021.25;;;6.58;96.95
60465;BME280;46314;52.392;9.758;2023-04-09T07:08:12;102024.59;;;6.60;96.75
60465;BME280;46314;52.392;9.758;2023-04-09T07:10:39;102020.94;;;6.95;94.70
60465;BME280;46314;52.392;9.758;2023-04-09T07:13:06;102022.66;;;6.73;96.88
60465;BME280;46314;52.392;9.758;2023-04-09T07:15:33;102015.50;;;6.48;97.82
60465;BME280;46314;52.392;9.758;2023-04-09T07:17:59;102030.13;;;6.25;99.27
60465;BME280;46314;52.392;9.758;2023-04-09T07:20:26;102024.25;;;6.57;99.46
60465;BME280;46314;52.392;9.758;2023-04-09T07:22:52;102027.00;;;6.57;97.58
60465;BME280;46314;52.392;9.758;2023-04-09T07:25:18;102014.41;;;6.61;97.62
60465;BME280;46314;52.392;9.758;2023-04-09T07:27:46;102020.84;;;6.90;96.47
60465;BME280;46314;52.392;9.758;2023-04-09T07:30:13;102027.69;;;7.28;95.13
60465;BME280;46314;52.392;9.758;2023-04-09T07:32:39;102022.31;;;7.22;95.00
60465;BME280;46314;52.392;9.758;2023-04-09T07:35:07;102019.84;;;6.96;96.71
60465;BME280;46314;52.392;9.758;2023-04-09T07:37:33;102023.50;;;7.14;96.12
60465;BME280;46314;52.392;9.758;2023-04-09T07:40:00;102018.31;;;6.77;96.59
60465;BME280;46314;52.392;9.758;2023-04-09T07:42:27;102027.59;;;7.23;95.56
60465;BME280;46314;52.392;9.758;2023-04-09T07:44:55;102027.19;;;7.31;95.03
60465;BME280;46314;52.392;9.758;2023-04-09T07:47:22;102027.59;;;7.52;95.37
60465;BME280;46314;52.392;9.758;2023-04-09T07:49:48;102026.00;;;7.56;93.71
60465;BME280;46314;52.392;9.758;2023-04-09T07:52:15;102021.47;;;7.50;94.77
60465;BME280;46314;52.392;9.758;2023-04-09T07:54:41;102026.94;;;7.33;95.46
60465;BME280;46314;52.392;9.758;2023-04-09T07:57:07;102026.13;;;6.80;98.27
60465;BME280;46314;52.392;9.758;2023-04-09T07:59:34;102023.50;;;7.14;96.98
60465;BME280;46314;52.392;9.758;2023-04-09T08:02:02;102024.53;;;7.82;94.07
60465;BME280;46314;52.392;9.758;2023-04-09T08:04:28;102022.19;;;8.42;91.84
60465;BME280;46314;52.392;9.758;2023-04-09T08:06:55;102021.56;;;8.51;90.09
60465;BME280;46314;52.392;9.758;2023-04-09T08:09:21;102017.44;;;8.20;92.29
60465;BME280;46314;52.392;9.758;2023-04-09T08:11:48;102012.25;;;9.02;87.93
60465;BME280;46314;52.392;9.758;2023-04-09T08:14:16;102013.22;;;9.13;90.22
60465;BME280;46314;52.392;9.758;2023-04-09T08:16:44;102011.88;;;9.64;83.87
60465;BME280;46314;52.392;9.758;2023-04-09T08:19:12;102015.69;;;8.48;90.46
60465;BME280;46314;52.392;9.758;2023-04-09T08:21:40;102018.88;;;8.57;89.18
60465;BME280;46314;52.392;9.758;2023-04-09T08:24:07;102021.72;;;7.94;91.51
60465;BME280;46314;52.392;9.758;2023-04-09T08:26:34;102023.66;;;8.44;91.36
60465;BME280;46314;52.392;9.758;2023-04-09T08:29:00;102026.41;;;7.93;93.13
60465;BME280;46314;52.392;9.758;2023-04-09T08:31:26;102031.59;;;7.90;93.56
60465;BME280;46314;52.392;9.758;2023-04-09T08:33:53;102025.47;;;8.05;91.78
60465;BME280;46314;52.392;9.758;2023-04-09T08:36:21;102025.53;;;7.76;92.57
60465;BME280;46314;52.392;9.758;2023-04-09T08:38:47;102029.69;;;8.07;92.18
60465;BME280;46314;52.392;9.758;2023-04-09T08:41:18;102027.25;;;7.94;91.29
60465;BME280;46314;52.392;9.758;2023-04-09T08:43:46;102025.47;;;8.39;92.10
60465;BME280;46314;52.392;9.758;2023-04-09T08:46:18;102026.81;;;8.19;92.03
60465;BME280;46314;52.392;9.758;2023-04-09T08:48:46;102030.75;;;8.40;90.16
60465;BME280;46314;52.392;9.758;2023-04-09T08:51:13;102028.00;;;8.23;91.38
60465;BME280;46314;52.392;9.758;2023-04-09T08:53:43;102025.38;;;8.33;90.00
60465;BME280;46314;52.392;9.758;2023-04-09T08:56:10;102026.28;;;8.95;88.27
60465;BME280;46314;52.392;9.758;2023-04-09T08:58:39;102024.78;;;10.98;76.65
60465;BME280;46314;52.392;9.758;2023-04-09T09:01:17;102018.97;;;9.82;80.75
60465;BME280;46314;52.392;9.758;2023-04-09T09:03:52;102024.38;;;10.32;77.66
60465;BME280;46314;52.392;9.758;2023-04-09T09:06:20;102019.53;;;9.84;81.70
60465;BME280;46314;52.392;9.758;2023-04-09T09:08:58;102019.66;;;9.68;81.85
60465;BME280;46314;52.392;9.758;2023-04-09T09:11:25;102020.16;;;9.37;82.49
60465;BME280;46314;52.392;9.758;2023-04-09T09:13:56;102020.44;;;8.91;84.13
60465;BME280;46314;52.392;9.758;2023-04-09T09:16:23;102023.91;;;9.04;83.48
60465;BME280;46314;52.392;9.758;2023-04-09T09:18:49;102019.00;;;8.67;86.69
60465;BME280;46314;52.392;9.758;2023-04-09T09:21:18;102020.69;;;8.68;85.32
60465;BME280;46314;52.392;9.758;2023-04-09T09:23:45;102018.69;;;9.07;84.22
60465;BME280;46314;52.392;9.758;2023-04-09T09:26:13;102015.59;;;9.04;84.26
60465;BME280;46314;52.392;9.758;2023-04-09T09:28:40;102017.59;;;9.08;82.76
60465;BME280;46314;52.392;9.758;2023-04-09T09:31:07;102007.03;;;9.05;84.20
60465;BME280;46314;52.392;9.758;2023-04-09T09:33:34;102013.69;;;9.04;83.95
60465;BME280;46314;52.392;9.758;2023-04-09T09:36:01;102012.38;;;9.12;82.89
60465;BME280;46314;52.392;9.758;2023-04-09T09:38:28;102016.34;;;8.55;85.02
60465;BME280;46314;52.392;9.758;2023-04-09T09:40:55;102009.25;;;9.53;82.55
60465;BME280;46314;52.392;9.758;2023-04-09T09:43:23;102014.19;;;9.23;83.18
60465;BME280;46314;52.392;9.758;2023-04-09T09:45:50;102018.97;;;9.82;80.82
60465;BME280;46314;52.392;9.758;2023-04-09T09:48:18;102005.94;;;10.53;77.39
60465;BME280;46314;52.392;9.758;2023-04-09T09:50:45;102011.66;;;10.03;78.92
60465;BME280;46314;52.392;9.758;2023-04-09T09:53:16;102016.28;;;9.65;81.81
60465;BME280;46314;52.392;9.758;2023-04-09T09:55:48;102016.59;;;9.42;82.64
60465;BME280;46314;52.392;9.758;2023-04-09T09:58:18;102023.19;;;10.22;78.62
60465;BME280;46314;52.392;9.758;2023-04-09T10:00:50;102017.19;;;9.44;81.87
60465;BME280;46314;52.392;9.758;2023-04-09T10:03:20;102018.66;;;9.52;81.29
60465;BME280;46314;52.392;9.758;2023-04-09T10:05:48;102014.34;;;9.39;82.01
60465;BME280;46314;52.392;9.758;2023-04-09T10:08:15;102018.28;;;9.70;81.20
60465;BME280;46314;52.392;9.758;2023-04-09T10:10:42;102015.06;;;10.43;79.08
60465;BME280;46314;52.392;9.758;2023-04-09T10:13:12;102003.63;;;10.34;79.02
60465;BME280;46314;52.392;9.758;2023-04-09T10:15:41;102004.00;;;9.83;79.11
60465;BME280;46314;52.392;9.758;2023-04-09T10:18:10;102007.06;;;11.05;75.38
60465;BME280;46314;52.392;9.758;2023-04-09T10:20:40;102001.94;;;10.01;79.53
60465;BME280;46314;52.392;9.758;2023-04-09T10:23:14;101994.75;;;10.90;75.83
60465;BME280;46314;52.392;9.758;2023-04-09T10:25:44;101984.22;;;10.39;77.54
60465;BME280;46314;52.392;9.758;2023-04-09T10:28:14;101982.03;;;10.99;74.91
60465;BME280;46314;52.392;9.758;2023-04-09T10:30:41;101988.22;;;11.17;73.58
60465;BME280;46314;52.392;9.758;2023-04-09T10:33:13;101987.47;;;10.74;75.05
60465;BME280;46314;52.392;9.758;2023-04-09T10:35:40;101981.25;;;10.51;75.77
60465;BME280;46314;52.392;9.758;2023-04-09T10:38:07;101974.53;;;10.04;78.61
60465;BME280;46314;52.392;9.758;2023-04-09T10:40:33;101973.78;;;10.57;76.77
60465;BME280;46314;52.392;9.758;2023-04-09T10:43:00;101978.75;;;11.18;73.27
60465;BME280;46314;52.392;9.758;2023-04-09T10:45:38;101971.09;;;10.77;75.34
60465;BME280;46314;52.392;9.758;2023-04-09T10:48:05;101971.53;;;10.49;76.52
60465;BME280;46314;52.392;9.758;2023-04-09T10:50:38;101965.75;;;11.34;73.22
60465;BME280;46314;52.392;9.758;2023-04-09T10:53:04;101960.16;;;11.13;73.67
60465;BME280;46314;52.392;9.758;2023-04-09T10:55:35;101965.00;;;10.28;75.54
60465;BME280;46314;52.392;9.758;2023-04-09T10:58:03;101964.44;;;10.26;75.72
60465;BME280;46314;52.392;9.758;2023-04-09T11:00:29;101967.69;;;10.17;75.62
60465;BME280;46314;52.392;9.758;2023-04-09T11:03:12;101962.31;;;10.05;75.78
60465;BME280;46314;52.392;9.758;2023-04-09T11:05:46;101967.34;;;9.44;78.33
60465;BME280;46314;52.392;9.758;2023-04-09T11:08:13;101964.03;;;9.47;78.82
60465;BME280;46314;52.392;9.758;2023-04-09T11:10:43;101958.88;;;9.88;78.55
60465;BME280;46314;52.392;9.758;2023-04-09T11:13:10;101958.59;;;10.27;76.73
60465;BME280;46314;52.392;9.758;2023-04-09T11:15:38;101966.63;;;9.86;78.44
60465;BME280;46314;52.392;9.758;2023-04-09T11:18:04;101958.16;;;10.03;78.18
60465;BME280;46314;52.392;9.758;2023-04-09T11:20:33;101967.69;;;9.80;78.28
60465;BME280;46314;52.392;9.758;2023-04-09T11:23:01;101960.31;;;9.63;78.88
60465;BME280;46314;52.392;9.758;2023-04-09T11:25:29;101962.97;;;9.80;79.83
60465;BME280;46314;52.392;9.758;2023-04-09T11:27:56;101954.69;;;9.85;78.66
60465;BME280;46314;52.392;9.758;2023-04-09T11:30:23;101965.16;;;9.78;79.71
60465;BME280;46314;52.392;9.758;2023-04-09T11:32:50;101963.38;;;9.94;79.71
60465;BME280;46314;52.392;9.758;2023-04-09T11:35:18;101967.28;;;10.36;77.88
60465;BME280;46314;52.392;9.758;2023-04-09T11:37:46;101966.25;;;9.45;80.50
60465;BME280;46314;52.392;9.758;2023-04-09T11:40:18;101961.63;;;9.28;82.51
60465;BME280;46314;52.392;9.758;2023-04-09T11:42:48;101968.66;;;10.33;79.13
60465;BME280;46314;52.392;9.758;2023-04-09T11:45:15;101955.88;;;9.95;79.88
60465;BME280;46314;52.392;9.758;2023-04-09T11:47:43;101955.47;;;10.13;79.53
60465;BME280;46314;52.392;9.758;2023-04-09T11:50:11;101960.16;;;10.13;78.45
60465;BME280;46314;52.392;9.758;2023-04-09T11:52:38;101962.47;;;10.26;78.45
60465;BME280;46314;52.392;9.758;2023-04-09T11:55:05;101957.91;;;11.10;74.40
60465;BME280;46314;52.392;9.758;2023-04-09T11:57:38;101959.59;;;10.11;76.79
60465;BME280;46314;52.392;9.758;2023-04-09T12:00:07;101961.84;;;10.14;76.92
60465;BME280;46314;52.392;9.758;2023-04-09T12:02:37;101962.03;;;11.03;74.25
60465;BME280;46314;52.392;9.758;2023-04-09T12:07:31;101952.94;;;11.12;71.12
60465;BME280;46314;52.392;9.758;2023-04-09T12:10:02;101951.19;;;10.86;72.04
60465;BME280;46314;52.392;9.758;2023-04-09T12:12:29;101960.22;;;11.44;70.29
60465;BME280;46314;52.392;9.758;2023-04-09T12:14:57;101956.78;;;11.11;70.31
60465;BME280;46314;52.392;9.758;2023-04-09T12:17:23;101950.78;;;12.22;67.50
60465;BME280;46314;52.392;9.758;2023-04-09T12:19:50;101949.66;;;12.28;66.75
60465;BME280;46314;52.392;9.758;2023-04-09T12:22:16;101949.13;;;11.65;68.67
60465;BME280;46314;52.392;9.758;2023-04-09T12:24:42;101950.47;;;12.44;64.61
60465;BME280;46314;52.392;9.758;2023-04-09T12:27:09;101958.00;;;11.46;68.20
60465;BME280;46314;52.392;9.758;2023-04-09T12:29:35;101939.81;;;10.87;69.85
60465;BME280;46314;52.392;9.758;2023-04-09T12:32:03;101944.13;;;11.67;68.66
60465;BME280;46314;52.392;9.758;2023-04-09T12:34:30;101936.63;;;11.83;68.37
60465;BME280;46314;52.392;9.758;2023-04-09T12:36:56;101931.09;;;12.03;67.27
60465;BME280;46314;52.392;9.758;2023-04-09T12:39:23;101928.38;;;12.79;63.70
60465;BME280;46314;52.392;9.758;2023-04-09T12:41:49;101919.78;;;12.65;62.96
60465;BME280;46314;52.392;9.758;2023-04-09T12:44:15;101920.69;;;10.96;67.64
60465;BME280;46314;52.392;9.758;2023-04-09T12:46:42;101920.19;;;10.46;70.27
60465;BME280;46314;52.392;9.758;2023-04-09T12:49:10;101919.38;;;11.29;68.70
60465;BME280;46314;52.392;9.758;2023-04-09T12:51:36;101918.41;;;10.83;69.36
60465;BME280;46314;52.392;9.758;2023-04-09T12:54:03;101918.53;;;11.44;67.51
60465;BME280;46314;52.392;9.758;2023-04-09T12:56:29;101913.56;;;11.77;65.74
60465;BME280;46314;52.392;9.758;2023-04-09T12:58:56;101920.97;;;10.99;67.95